Time;durP1;ratioP1;P1;durP2;ratioP2;P2;SDS_P1;SDS_P2;PMS_P1;PMS_P2;Temp;Humidity;BMP_temperature;BMP_pressure;BME280_temperature;BME280_humidity;BME280_pressure;Samples;Min_cycle;Max_cycle;Signal;HPM_P1;HPM_P2
2022/05/23 00:01:35;;;;;;;5.37;3.70;;;;;;;22.51;46.43;100668.19;5052942;28;20075;-58
2022/05/23 00:04:01;;;;;;;4.80;3.20;;;;;;;22.50;46.11;100669.16;5053041;28;20814;-58
2022/05/23 00:06:26;;;;;;;6.13;3.38;;;;;;;22.49;46.47;100659.53;5052479;28;20274;-58
2022/05/23 00:08:52;;;;;;;6.00;3.50;;;;;;;22.48;46.76;100665.84;5052621;28;20138;-59
2022/05/23 00:11:19;;;;;;;5.68;3.28;;;;;;;22.49;46.54;100664.81;5052949;28;20103;-59
2022/05/23 00:13:45;;;;;;;5.20;3.33;;;;;;;22.49;46.66;100671.97;5052404;28;20424;-58
2022/05/23 00:16:17;;;;;;;4.82;3.20;;;;;;;22.48;46.73;100671.16;5052240;28;20029;-60
2022/05/23 00:18:43;;;;;;;5.50;3.40;;;;;;;22.49;46.68;100669.31;5053214;28;20017;-58
2022/05/23 00:21:08;;;;;;;7.18;3.20;;;;;;;22.47;46.46;100658.84;5051824;28;20029;-58
2022/05/23 00:23:33;;;;;;;4.77;3.20;;;;;;;22.45;46.63;100647.56;5052739;28;20031;-58
2022/05/23 00:26:01;;;;;;;5.20;3.40;;;;;;;22.45;46.35;100644.91;5052762;28;20040;-58
2022/05/23 00:28:26;;;;;;;5.57;3.53;;;;;;;22.45;46.38;100642.25;5052262;28;20024;-58
2022/05/23 00:30:54;;;;;;;4.57;3.00;;;;;;;22.44;46.56;100635.28;5052636;28;20552;-58
2022/05/23 00:36:04;;;;;;;5.55;3.05;;;;;;;22.44;46.48;100656.50;5052278;28;20032;-58
2022/05/23 00:38:29;;;;;;;5.80;3.35;;;;;;;22.44;46.66;100648.53;5052644;28;20025;-58
2022/05/23 00:43:48;;;;;;;5.15;3.00;;;;;;;22.43;46.38;100645.06;5052668;28;20055;-58
2022/05/23 00:46:19;;;;;;;6.10;3.50;;;;;;;22.42;46.23;100638.06;5052593;28;20480;-58
2022/05/23 00:48:44;;;;;;;6.20;3.17;;;;;;;22.43;46.55;100637.09;5052334;28;20029;-58
2022/05/23 00:51:19;;;;;;;5.45;3.08;;;;;;;22.41;46.28;100620.50;5052046;28;20059;-58
2022/05/23 00:53:47;;;;;;;5.03;3.30;;;;;;;22.41;46.59;100615.19;5052478;28;20064;-58
2022/05/23 00:56:15;;;;;;;5.22;3.08;;;;;;;22.40;46.50;100612.69;5051595;28;20076;-58
2022/05/23 00:58:45;;;;;;;5.18;3.30;;;;;;;22.40;46.26;100616.19;5052510;28;20025;-58
2022/05/23 01:01:14;;;;;;;4.78;3.03;;;;;;;22.39;46.36;100605.72;5052001;28;20037;-58
2022/05/23 01:03:40;;;;;;;4.75;3.05;;;;;;;22.40;46.37;100610.88;5052136;28;20021;-58
2022/05/23 01:06:06;;;;;;;4.50;3.15;;;;;;;22.39;46.34;100611.84;5051862;28;20028;-58
2022/05/23 01:08:36;;;;;;;4.68;3.13;;;;;;;22.39;46.38;100621.66;5051785;28;20502;-58
2022/05/23 01:11:03;;;;;;;4.82;2.90;;;;;;;22.38;46.73;100622.63;5051933;28;20064;-58
2022/05/23 01:13:29;;;;;;;4.50;3.15;;;;;;;22.38;46.11;100633.25;5052361;28;20463;-58
2022/05/23 01:15:54;;;;;;;4.55;2.92;;;;;;;22.38;46.50;100633.25;5051440;28;20060;-58
2022/05/23 01:18:19;;;;;;;5.68;3.50;;;;;;;22.37;46.22;100637.72;5052085;28;20104;-58
2022/05/23 01:20:45;;;;;;;5.73;3.27;;;;;;;22.36;46.25;100633.41;5052115;28;20435;-58
2022/05/23 01:23:51;;;;;;;4.80;3.10;;;;;;;22.37;46.40;100631.59;5051339;28;20803;-58
2022/05/23 01:26:17;;;;;;;5.32;3.28;;;;;;;22.35;46.18;100618.47;5053743;28;20048;-58
2022/05/23 01:28:43;;;;;;;5.38;2.92;;;;;;;22.35;46.52;100612.31;5056034;28;20108;-58
2022/05/23 01:31:11;;;;;;;6.13;3.00;;;;;;;22.34;46.55;100614.16;5055364;28;20472;-58
2022/05/23 01:33:42;;;;;;;4.93;3.15;;;;;;;22.34;46.19;100608.84;5056251;28;20082;-58
2022/05/23 01:36:13;;;;;;;6.13;3.38;;;;;;;22.33;46.54;100606.34;5055533;28;20054;-58
2022/05/23 01:38:38;;;;;;;5.32;2.90;;;;;;;22.32;46.24;100602.88;5055167;28;20476;-59
2022/05/23 01:41:05;;;;;;;5.32;3.30;;;;;;;22.32;46.20;100592.25;5055494;28;20027;-58
2022/05/23 01:43:31;;;;;;;4.75;3.28;;;;;;;22.32;46.26;100602.88;5055173;28;20032;-58
2022/05/23 01:45:59;;;;;;;5.05;3.30;;;;;;;22.33;46.03;100606.34;5055518;28;20108;-58
2022/05/23 01:48:28;;;;;;;4.78;3.20;;;;;;;22.31;46.38;100606.50;5055697;28;20024;-59
2022/05/23 01:50:53;;;;;;;5.78;3.20;;;;;;;22.31;46.57;100603.84;5054877;28;20029;-59
2022/05/23 01:53:18;;;;;;;5.77;3.47;;;;;;;22.30;46.34;100602.16;5055381;28;20021;-58
2022/05/23 01:55:44;;;;;;;6.65;3.42;;;;;;;22.28;46.11;100607.59;5055497;28;20108;-59
2022/05/23 01:58:09;;;;;;;5.90;3.30;;;;;;;22.28;46.08;100606.78;5054629;28;20033;-59
2022/05/23 02:03:19;;;;;;;4.60;3.05;;;;;;;22.28;46.03;100593.50;5055723;28;20128;-58
2022/05/23 02:05:44;;;;;;;4.63;3.03;;;;;;;22.27;46.26;100586.53;5054893;28;20063;-58
2022/05/23 02:08:10;;;;;;;5.27;3.20;;;;;;;22.27;46.25;100581.22;5054850;28;20062;-58
2022/05/23 02:10:36;;;;;;;6.78;3.35;;;;;;;22.26;46.60;100585.69;5054273;28;20642;-58
2022/05/23 02:13:02;;;;;;;5.55;3.28;;;;;;;22.26;46.12;100587.53;5054697;28;20032;-57
2022/05/23 02:15:31;;;;;;;4.63;3.15;;;;;;;22.26;46.54;100591.00;5055013;28;20049;-59
2022/05/23 02:18:03;;;;;;;5.22;3.38;;;;;;;22.25;46.46;100593.81;5054862;28;20118;-59
2022/05/23 02:20:29;;;;;;;4.82;3.10;;;;;;;22.25;46.30;100586.69;5054416;28;20100;-59
2022/05/23 02:22:54;;;;;;;5.15;3.25;;;;;;;22.25;46.57;100583.22;5054745;28;20103;-58
2022/05/23 02:25:22;;;;;;;4.82;3.10;;;;;;;22.24;46.22;100585.03;5054707;28;20045;-58
2022/05/23 02:27:48;;;;;;;5.78;2.90;;;;;;;22.23;46.40;100582.53;5054331;28;20021;-58
2022/05/23 02:30:14;;;;;;;5.05;3.33;;;;;;;22.23;46.69;100585.19;5055061;28;20557;-59
2022/05/23 02:32:39;;;;;;;4.10;2.67;;;;;;;22.22;46.17;100576.41;5054485;28;20100;-57
2022/05/23 02:35:07;;;;;;;5.53;3.20;;;;;;;22.22;46.14;100578.22;5054266;28;20033;-58
2022/05/23 02:37:35;;;;;;;5.65;3.22;;;;;;;22.21;46.30;100572.06;5053538;28;20323;-57
2022/05/23 02:40:00;;;;;;;5.00;3.20;;;;;;;22.21;46.66;100561.47;5054163;28;20037;-58
2022/05/23 02:42:25;;;;;;;4.60;3.03;;;;;;;22.20;46.20;100559.78;5054591;28;20483;-58
2022/05/23 02:44:50;;;;;;;4.80;3.20;;;;;;;22.20;46.48;100558.97;5054248;28;20029;-59
2022/05/23 02:47:16;;;;;;;4.93;2.97;;;;;;;22.20;46.34;100551.00;5054077;28;20274;-58
2022/05/23 02:49:41;;;;;;;5.78;3.10;;;;;;;22.19;46.65;100539.56;5054289;28;20798;-59
2022/05/23 02:52:06;;;;;;;4.90;2.90;;;;;;;22.19;46.48;100536.91;5054228;28;20033;-59
2022/05/23 02:54:34;;;;;;;5.30;2.90;;;;;;;22.20;46.51;100532.44;5053892;28;20269;-59
2022/05/23 02:57:00;;;;;;;4.78;2.88;;;;;;;22.17;46.71;100519.47;5053994;28;20036;-58
2022/05/23 02:59:26;;;;;;;5.47;3.08;;;;;;;22.18;46.46;100510.53;5054335;28;20025;-58
2022/05/23 03:04:35;;;;;;;5.85;3.55;;;;;;;22.16;46.26;100489.47;5054079;28;20480;-58
2022/05/23 03:07:01;;;;;;;4.60;2.83;;;;;;;22.15;46.74;100484.31;5053829;28;20033;-58
2022/05/23 03:09:31;;;;;;;4.70;3.05;;;;;;;22.15;46.56;100474.50;5053645;28;20039;-58
2022/05/23 03:11:56;;;;;;;5.30;3.30;;;;;;;22.16;46.24;100472.69;5053890;28;20465;-58
2022/05/23 03:14:21;;;;;;;6.32;3.25;;;;;;;22.15;46.64;100463.91;5054138;28;20029;-58
2022/05/23 03:16:47;;;;;;;4.80;2.72;;;;;;;22.14;46.39;100467.53;5053329;28;20056;-58
2022/05/23 03:19:12;;;;;;;5.03;3.10;;;;;;;22.16;46.67;100462.06;5053577;28;20472;-58
2022/05/23 03:27:05;;;;;;;5.65;3.22;;;;;;;22.13;46.46;100452.63;5053599;28;20036;-57
2022/05/23 03:29:31;;;;;;;5.22;3.08;;;;;;;22.12;46.40;100435.03;5053202;28;20033;-58
2022/05/23 03:31:58;;;;;;;5.60;3.03;;;;;;;22.13;46.80;100438.50;5053036;28;20024;-58
2022/05/23 03:34:24;;;;;;;6.43;3.38;;;;;;;22.12;46.58;100435.03;5053768;28;20282;-58
2022/05/23 03:36:52;;;;;;;6.00;3.20;;;;;;;22.13;46.67;100438.50;5052845;28;20098;-59
2022/05/23 03:39:17;;;;;;;6.95;3.17;;;;;;;22.13;46.54;100425.22;5053365;28;20040;-58
2022/05/23 03:41:42;;;;;;;5.28;3.40;;;;;;;22.10;46.35;100419.25;5053627;28;20029;-59
2022/05/23 03:44:08;;;;;;;4.60;2.83;;;;;;;22.10;46.68;100421.09;5052793;28;20029;-59
2022/05/23 03:46:36;;;;;;;6.28;3.20;;;;;;;22.11;46.40;100414.78;5053204;28;20031;-58
2022/05/23 03:49:02;;;;;;;4.93;3.30;;;;;;;22.10;46.69;100419.25;5052912;28;20048;-58
2022/05/23 03:51:28;;;;;;;4.80;3.03;;;;;;;22.10;46.49;100413.13;5052812;28;20049;-59
2022/05/23 03:53:54;;;;;;;4.45;2.75;;;;;;;22.10;46.46;100408.66;5053001;28;20029;-59
2022/05/23 03:56:19;;;;;;;5.22;3.10;;;;;;;22.10;46.40;100407.81;5053218;28;20039;-59
2022/05/23 03:58:47;;;;;;;5.63;3.13;;;;;;;22.09;46.57;100406.97;5052572;28;20116;-58
2022/05/23 04:01:17;;;;;;;5.40;3.00;;;;;;;22.09;46.53;100406.97;5053314;28;20491;-58
2022/05/23 04:03:42;;;;;;;4.78;2.80;;;;;;;22.09;46.58;100403.50;5053423;28;20079;-58
2022/05/23 04:06:11;;;;;;;4.10;2.63;;;;;;;22.09;46.82;100400.84;5051946;28;20025;-58
2022/05/23 04:08:36;;;;;;;5.47;3.13;;;;;;;22.09;46.68;100400.84;5053046;28;20067;-58
2022/05/23 04:11:03;;;;;;;5.13;3.30;;;;;;;22.08;46.80;100392.06;5052656;28;20384;-58
2022/05/23 04:13:29;;;;;;;8.10;4.28;;;;;;;22.08;46.47;100393.91;5052130;28;20023;-58
2022/05/23 04:15:57;;;;;;;5.60;3.30;;;;;;;22.09;46.40;100382.28;5052722;28;20024;-58
2022/05/23 04:18:26;;;;;;;4.40;3.00;;;;;;;22.08;46.70;100378.81;5052496;28;20093;-59
2022/05/23 04:20:51;;;;;;;5.78;2.97;;;;;;;22.08;46.68;100376.16;5052360;28;20025;-59
2022/05/23 04:23:17;;;;;;;6.63;3.30;;;;;;;22.07;46.52;100374.47;5052739;28;20032;-59
2022/05/23 04:25:48;;;;;;;6.40;2.97;;;;;;;22.07;46.81;100371.00;5052179;28;20044;-58
2022/05/23 04:28:15;;;;;;;5.47;3.17;;;;;;;22.06;46.88;100378.13;5052487;28;20370;-58
2022/05/23 04:30:40;;;;;;;5.60;2.90;;;;;;;22.07;46.94;100379.78;5052867;28;20182;-59
2022/05/23 04:35:51;;;;;;;4.97;2.75;;;;;;;22.05;46.88;100371.16;5052323;28;20070;-58
2022/05/23 04:38:22;;;;;;;4.82;3.17;;;;;;;22.06;46.56;100371.97;5052464;28;20025;-58
2022/05/23 04:40:47;;;;;;;6.40;3.30;;;;;;;22.06;46.89;100369.31;5051635;28;21147;-59
2022/05/23 04:43:13;;;;;;;5.55;2.90;;;;;;;22.06;46.66;100366.66;5052733;28;20110;-58
2022/05/23 04:45:39;;;;;;;5.40;3.20;;;;;;;22.06;46.81;100358.72;5052563;28;20024;-57
2022/05/23 04:50:49;;;;;;;5.35;3.25;;;;;;;22.04;46.69;100353.56;5052256;28;20122;-58
2022/05/23 04:53:15;;;;;;;5.68;3.00;;;;;;;22.05;46.92;100349.13;5052293;28;20496;-59
2022/05/23 04:55:43;;;;;;;4.85;2.70;;;;;;;22.04;47.10;100342.97;5051650;28;20110;-58
2022/05/23 04:58:24;;;;;;;4.78;2.80;;;;;;;22.04;46.92;100348.25;5052007;28;20431;-58
2022/05/23 05:00:49;;;;;;;5.03;2.90;;;;;;;22.03;47.13;100349.28;5053444;28;20028;-59
2022/05/23 05:03:15;;;;;;;5.50;3.10;;;;;;;22.03;46.86;100348.41;5056159;28;20025;-58
2022/05/23 05:05:40;;;;;;;4.72;2.90;;;;;;;22.04;47.23;100347.44;5056258;28;20033;-58
2022/05/23 05:08:05;;;;;;;4.25;2.60;;;;;;;22.04;46.76;100335.00;5055602;28;20028;-58
2022/05/23 05:10:31;;;;;;;5.03;2.90;;;;;;;22.05;47.05;100338.50;5056123;28;20115;-59
2022/05/23 05:12:58;;;;;;;5.00;2.75;;;;;;;22.03;46.91;100328.03;5055923;28;20376;-59
2022/05/23 05:15:25;;;;;;;5.15;2.95;;;;;;;22.03;46.86;100322.75;5055526;28;20455;-59
2022/05/23 05:17:51;;;;;;;5.13;2.80;;;;;;;22.04;47.06;100311.13;5055623;28;20029;-59
2022/05/23 05:20:18;;;;;;;4.95;2.75;;;;;;;22.03;47.19;100312.13;5056157;28;20033;-59
2022/05/23 05:22:44;;;;;;;4.47;2.92;;;;;;;22.04;47.18;100303.16;5055543;28;20025;-59
2022/05/23 05:25:13;;;;;;;4.70;2.70;;;;;;;22.03;46.90;100298.00;5055696;28;20048;-58
2022/05/23 05:27:39;;;;;;;4.53;2.90;;;;;;;22.04;47.11;100295.19;5056248;28;20107;-58
2022/05/23 05:30:08;;;;;;;5.10;2.90;;;;;;;22.04;47.16;100294.38;5055428;28;20104;-59
2022/05/23 05:32:40;;;;;;;4.60;2.63;;;;;;;22.04;47.10;100292.53;5055864;28;20484;-58
2022/05/23 05:35:47;;;;;;;4.40;2.80;;;;;;;22.05;47.18;100288.09;5055521;28;20075;-59
2022/05/23 05:38:38;;;;;;;4.72;2.53;;;;;;;22.06;46.91;100279.13;5027824;28;20117;-59
2022/05/23 05:41:11;;;;;;;5.25;2.78;;;;;;;22.04;46.83;100279.28;5004344;28;20033;-59
2022/05/23 05:43:41;;;;;;;5.57;2.80;;;;;;;22.05;47.08;100278.28;5054561;28;20065;-58
2022/05/23 05:46:27;;;;;;;7.53;3.05;;;;;;;22.05;46.88;100272.16;5055337;28;20575;-59
2022/05/23 05:48:55;;;;;;;4.28;2.65;;;;;;;22.06;47.15;100263.19;5055306;28;20025;-57
2022/05/23 05:51:25;;;;;;;4.57;3.00;;;;;;;22.05;47.10;100251.75;5054679;28;20029;-58
2022/05/23 05:53:51;;;;;;;4.07;2.50;;;;;;;22.06;46.83;100253.44;5055059;28;20021;-58
2022/05/23 05:56:18;;;;;;;4.65;2.60;;;;;;;22.06;47.06;100253.44;5055388;28;20036;-59
2022/05/23 05:58:43;;;;;;;5.00;2.90;;;;;;;22.07;47.04;100252.41;5054354;28;20472;-59
2022/05/23 06:01:08;;;;;;;5.25;2.78;;;;;;;22.08;46.79;100258.56;5054833;28;20025;-59
2022/05/23 06:03:34;;;;;;;4.95;2.65;;;;;;;22.07;46.75;100256.91;5055067;28;20037;-58
2022/05/23 06:11:27;;;;;;;4.85;2.72;;;;;;;22.06;47.02;100260.53;5054495;28;20107;-58
2022/05/23 06:14:04;;;;;;;5.70;2.55;;;;;;;22.08;46.80;100259.41;5055070;28;20071;-61
2022/05/23 06:16:32;;;;;;;4.65;2.60;;;;;;;22.08;47.03;100250.63;5055217;28;20537;-60
2022/05/23 06:18:58;;;;;;;4.63;2.70;;;;;;;22.08;47.51;100240.81;5054468;28;20029;-61
2022/05/23 06:21:25;;;;;;;5.15;2.78;;;;;;;22.10;47.36;100235.34;5054896;28;20025;-60
2022/05/23 06:23:52;;;;;;;4.95;2.83;;;;;;;22.11;47.29;100236.97;5054335;28;20404;-59
2022/05/23 06:26:23;;;;;;;5.82;2.83;;;;;;;22.12;47.51;100236.00;5053924;28;20496;-60
2022/05/23 06:28:50;;;;;;;4.22;2.53;;;;;;;22.13;47.27;100229.72;5054503;28;20055;-62
2022/05/23 06:31:15;;;;;;;5.70;2.33;;;;;;;22.14;47.06;100222.56;5054744;28;20476;-59
2022/05/23 06:33:42;;;;;;;5.07;2.58;;;;;;;22.15;47.20;100226.88;5053851;28;20100;-59
2022/05/23 06:36:09;;;;;;;5.47;2.55;;;;;;;22.14;47.06;100228.69;5054464;28;20385;-61
2022/05/23 06:38:36;;;;;;;5.03;2.40;;;;;;;22.13;46.94;100227.06;5054576;28;20029;-61
2022/05/23 06:41:03;;;;;;;4.45;2.72;;;;;;;22.14;47.39;100231.34;5053984;28;20148;-60
2022/05/23 06:43:32;;;;;;;4.57;2.83;;;;;;;22.13;47.40;100226.22;5054343;28;20096;-58
2022/05/23 06:45:59;;;;;;;4.95;2.75;;;;;;;22.12;47.39;100221.91;5053657;28;20017;-58
2022/05/23 06:48:25;;;;;;;4.88;2.80;;;;;;;22.13;47.59;100228.84;5054427;28;20029;-56
2022/05/23 06:50:51;;;;;;;5.25;2.33;;;;;;;22.14;47.51;100225.22;5054207;28;20100;-59
2022/05/23 06:53:19;;;;;;;4.65;2.97;;;;;;;22.15;47.26;100225.06;5053826;28;20112;-59
2022/05/23 06:55:45;;;;;;;4.32;2.42;;;;;;;22.15;47.39;100222.41;5054156;28;20040;-61
2022/05/23 06:58:11;;;;;;;5.70;2.90;;;;;;;22.15;47.33;100227.72;5053975;28;20241;-61
2022/05/23 07:00:37;;;;;;;6.78;2.65;;;;;;;22.15;47.23;100222.41;5053920;28;20024;-60
2022/05/23 07:03:02;;;;;;;8.70;2.50;;;;;;;22.16;47.37;100232.03;5053850;28;20484;-59
2022/05/23 07:13:39;;;;;;;4.88;2.50;;;;;;;22.17;47.82;100217.75;5054263;28;20035;-60
2022/05/23 07:16:05;;;;;;;5.13;2.75;;;;;;;22.18;47.76;100223.91;5052802;28;20032;-59
2022/05/23 07:18:31;;;;;;;5.72;2.65;;;;;;;22.19;47.94;100222.88;5054074;28;20051;-60
2022/05/23 07:20:59;;;;;;;4.43;2.30;;;;;;;22.17;48.09;100208.97;5053307;28;20105;-60
2022/05/23 07:23:24;;;;;;;6.47;2.30;;;;;;;22.19;48.21;100213.13;5052904;28;20028;-60
2022/05/23 07:25:49;;;;;;;6.72;2.75;;;;;;;22.19;48.16;100214.94;5053659;28;20423;-60
2022/05/23 07:28:15;;;;;;;5.80;2.40;;;;;;;22.20;48.32;100208.63;5053243;28;20385;-59
2022/05/23 07:30:41;;;;;;;4.57;2.38;;;;;;;22.22;47.98;100225.22;5053353;28;20055;-60
2022/05/23 07:33:06;;;;;;;6.97;2.50;;;;;;;22.23;48.27;100226.88;5053305;28;20040;-59
2022/05/23 07:35:32;;;;;;;6.18;2.20;;;;;;;22.24;47.92;100232.03;5052875;28;20558;-61
2022/05/23 07:37:57;;;;;;;4.90;2.43;;;;;;;22.25;47.95;100228.34;5053178;28;20027;-62
2022/05/23 07:40:23;;;;;;;6.28;2.40;;;;;;;22.24;47.91;100226.72;5053751;28;20629;-60
2022/05/23 07:42:48;;;;;;;7.50;2.35;;;;;;;22.25;48.50;100223.06;5053584;28;20029;-60
2022/05/23 07:45:14;;;;;;;6.32;2.60;;;;;;;22.32;47.86;100210.00;5053616;28;20354;-61
2022/05/23 07:47:42;;;;;;;5.25;2.75;;;;;;;22.38;47.78;100201.38;5053460;28;20442;-61
2022/05/23 07:50:10;;;;;;;9.02;2.80;;;;;;;22.43;47.75;100207.00;5052100;28;20025;-60
2022/05/23 07:52:36;;;;;;;5.22;2.60;;;;;;;22.49;47.80;100204.66;5054298;28;20172;-60
2022/05/23 08:00:38;;;;;;;8.38;2.60;;;;;;;22.68;47.08;100206.09;5053511;28;20087;-60
2022/05/23 08:03:14;;;;;;;4.93;2.30;;;;;;;22.73;46.88;100193.97;5053065;28;20099;-61
2022/05/23 08:05:39;;;;;;;6.93;2.67;;;;;;;22.77;46.90;100194.47;5053347;28;20096;-59
2022/05/23 08:08:05;;;;;;;5.57;2.60;;;;;;;22.79;46.93;100185.31;5052453;28;20515;-61
2022/05/23 08:10:30;;;;;;;7.35;2.38;;;;;;;22.83;46.65;100177.84;5052865;28;20266;-61
2022/05/23 08:12:57;;;;;;;7.03;2.50;;;;;;;22.88;46.61;100178.16;5052564;28;20028;-59
2022/05/23 08:15:25;;;;;;;7.03;2.25;;;;;;;22.91;46.74;100175.16;5053360;28;20376;-60
2022/05/23 08:17:54;;;;;;;6.30;2.70;;;;;;;22.93;46.29;100170.47;5052719;28;20382;-61
2022/05/23 08:20:19;;;;;;;6.75;2.38;;;;;;;22.98;46.05;100169.97;5052915;28;20029;-61
2022/05/23 08:22:46;;;;;;;5.45;2.65;;;;;;;23.00;46.30;100167.97;5053337;28;20021;-61
2022/05/23 08:25:12;;;;;;;8.75;2.67;;;;;;;23.02;46.55;100176.59;5052003;28;20045;-60
2022/05/23 08:27:40;;;;;;;5.90;2.50;;;;;;;23.07;46.28;100162.81;5053095;28;20021;-60
2022/05/23 08:30:06;;;;;;;4.88;2.25;;;;;;;23.08;46.01;100153.84;5052784;28;20273;-60
2022/05/23 08:32:31;;;;;;;5.90;2.63;;;;;;;23.09;46.10;100164.28;5051894;28;20094;-60
2022/05/23 08:34:56;;;;;;;4.60;2.40;;;;;;;23.11;46.16;100156.16;5051736;28;20108;-59
2022/05/23 08:37:21;;;;;;;7.47;2.30;;;;;;;23.12;46.15;100145.34;5052794;28;20033;-61
2022/05/23 08:39:47;;;;;;;4.27;2.43;;;;;;;23.12;46.17;100129.41;5051998;28;20472;-61
2022/05/23 08:42:35;;;;;;;4.53;2.75;;;;;;;23.14;46.42;100122.06;5052594;28;20319;-60
2022/05/23 08:45:12;;;;;;;8.40;2.95;;;;;;;23.16;46.52;100122.75;5053472;28;20029;-60
2022/05/23 08:47:48;;;;;;;9.27;3.25;;;;;;;23.18;46.13;100122.56;5052707;28;20067;-60
2022/05/23 08:50:24;;;;;;;6.35;2.20;;;;;;;23.18;46.29;100118.06;5052834;28;20032;-59
2022/05/23 08:52:58;;;;;;;4.78;2.30;;;;;;;23.15;46.53;100117.59;5051471;28;20031;-60
2022/05/23 08:55:27;;;;;;;6.60;2.20;;;;;;;23.11;46.62;100114.44;5052320;28;20025;-59
2022/05/23 08:58:19;;;;;;;5.53;2.63;;;;;;;23.06;46.47;100114.13;5052211;28;20071;-59
2022/05/23 09:00:50;;;;;;;5.20;2.20;;;;;;;23.05;46.25;100107.16;5051826;28;20032;-61
2022/05/23 09:03:22;;;;;;;6.70;2.50;;;;;;;23.07;46.57;100102.50;5053917;28;20029;-60
2022/05/23 09:06:02;;;;;;;5.15;2.90;;;;;;;23.07;46.43;100099.03;5052603;28;20075;-60
2022/05/23 09:08:32;;;;;;;5.75;2.33;;;;;;;23.04;46.67;100088.75;5051593;28;20428;-60
2022/05/23 09:11:02;;;;;;;6.35;2.25;;;;;;;23.02;47.08;100086.25;5052039;28;20119;-60
2022/05/23 09:13:30;;;;;;;4.35;2.40;;;;;;;22.99;46.90;100092.75;5052415;28;20071;-60
2022/05/23 09:16:03;;;;;;;4.43;2.08;;;;;;;22.95;47.06;100074.66;5051758;28;20056;-60
2022/05/23 09:18:40;;;;;;;6.33;2.70;;;;;;;22.93;46.83;100088.13;5052101;28;20084;-59
2022/05/23 09:21:09;;;;;;;5.90;2.47;;;;;;;22.89;47.05;100086.84;5051545;28;20029;-61
2022/05/23 09:23:44;;;;;;;8.25;2.63;;;;;;;22.88;47.02;100079.84;5052300;28;20059;-62
2022/05/23 09:26:17;;;;;;;6.72;2.60;;;;;;;22.92;46.71;100081.16;5055647;28;20397;-63
2022/05/23 09:28:42;;;;;;;6.25;2.38;;;;;;;22.96;46.92;100074.50;5052620;28;20025;-62
2022/05/23 09:31:17;;;;;;;9.67;2.87;;;;;;;23.01;46.73;100066.81;5052276;28;20127;-62
2022/05/23 09:33:46;;;;;;;4.30;2.10;;;;;;;23.07;46.26;100062.63;5052464;28;20819;-62
2022/05/23 09:36:19;;;;;;;5.50;2.40;;;;;;;23.11;46.18;100052.50;5051065;28;20473;-61
2022/05/23 09:38:50;;;;;;;6.35;2.53;;;;;;;23.15;46.57;100044.00;5052302;28;20025;-61
2022/05/23 09:49:51;;;;;;;6.57;2.00;;;;;;;23.05;46.90;100032.75;5056793;28;20040;-61
2022/05/23 09:52:32;;;;;;;5.30;2.33;;;;;;;23.04;46.74;100024.97;5055738;28;20529;-61
2022/05/23 09:55:02;;;;;;;4.72;1.90;;;;;;;23.00;46.66;100005.88;5055444;28;20060;-63
2022/05/23 09:57:35;;;;;;;5.07;2.30;;;;;;;22.98;46.74;99999.91;5054956;28;20087;-63
2022/05/23 10:00:22;;;;;;;4.78;2.10;;;;;;;22.94;47.25;99999.44;5055447;28;20075;-63
2022/05/23 10:02:52;;;;;;;3.72;1.98;;;;;;;22.94;47.16;99993.28;5054400;28;20032;-62
2022/05/23 10:05:55;;;;;;;7.65;2.50;;;;;;;22.94;47.51;99993.28;5055683;28;20029;-62
2022/05/23 10:08:36;;;;;;;7.25;2.50;;;;;;;22.93;47.43;99983.69;5056719;28;20021;-61
2022/05/23 10:11:12;;;;;;;4.72;2.38;;;;;;;22.93;47.13;99979.19;5054308;28;20033;-59
2022/05/23 10:13:40;;;;;;;7.72;2.30;;;;;;;22.98;47.79;99983.97;5055872;28;20051;-60
2022/05/23 10:16:08;;;;;;;5.75;2.53;;;;;;;23.04;47.54;99979.78;5054883;28;20377;-62
2022/05/23 10:18:36;;;;;;;7.60;2.60;;;;;;;23.11;47.34;99986.06;5054842;28;20114;-61
2022/05/23 10:21:19;;;;;;;11.57;3.53;;;;;;;23.15;46.85;99990.03;5055841;28;20029;-62
2022/05/23 10:24:04;;;;;;;8.30;2.30;;;;;;;23.20;46.70;99998.28;5056841;28;20392;-60
2022/05/23 10:26:33;;;;;;;5.32;2.40;;;;;;;23.24;47.32;100002.25;5055257;28;20029;-60
2022/05/23 10:29:26;;;;;;;6.40;2.50;;;;;;;23.26;46.85;99980.81;5055132;28;20029;-59
2022/05/23 10:32:01;;;;;;;7.57;2.17;;;;;;;23.26;46.67;99980.81;5054111;28;20400;-60
2022/05/23 10:34:40;;;;;;;7.13;2.45;;;;;;;23.22;46.96;99984.81;5055084;28;20029;-58
2022/05/23 10:37:08;;;;;;;5.85;2.08;;;;;;;23.18;46.76;99977.22;5054319;28;20147;-58
2022/05/23 10:42:25;;;;;;;4.50;2.05;;;;;;;23.14;47.42;99972.41;5055126;28;20044;-59
2022/05/23 10:44:59;;;;;;;5.22;1.90;;;;;;;23.13;47.25;99960.97;5054460;28;20120;-59
2022/05/23 10:47:39;;;;;;;4.65;2.42;;;;;;;23.11;47.45;99944.38;5054484;28;20427;-59
2022/05/23 10:50:16;;;;;;;5.50;2.35;;;;;;;23.09;47.56;99941.06;5054391;28;20056;-59
2022/05/23 10:53:02;;;;;;;5.97;2.25;;;;;;;23.07;47.37;99943.06;5053973;28;20418;-60
2022/05/23 10:55:48;;;;;;;8.02;2.28;;;;;;;23.07;47.41;99929.78;5054476;28;20033;-59
2022/05/23 10:58:32;;;;;;;5.22;2.05;;;;;;;23.06;47.61;99930.75;5053370;28;20027;-59
2022/05/23 11:01:11;;;;;;;6.93;2.05;;;;;;;23.06;47.91;99925.44;5053450;28;20036;-58
2022/05/23 11:03:57;;;;;;;5.55;2.10;;;;;;;23.07;48.20;99928.94;5054433;28;20091;-59
2022/05/23 11:06:57;;;;;;;5.28;2.10;;;;;;;23.04;48.12;99903.56;5054047;28;20033;-60
2022/05/23 11:09:42;;;;;;;5.65;2.50;;;;;;;23.01;48.26;99886.13;5053458;28;20488;-62
2022/05/23 11:12:26;;;;;;;4.97;2.35;;;;;;;22.99;47.89;99879.34;5053915;28;20117;-61
2022/05/23 11:15:23;;;;;;;5.43;2.25;;;;;;;23.02;48.32;99873.69;5055201;28;20071;-61
2022/05/23 11:18:09;;;;;;;7.45;2.53;;;;;;;23.05;48.29;99854.72;5054437;28;20033;-60
2022/05/23 11:20:37;;;;;;;5.82;2.40;;;;;;;23.06;48.07;99853.69;5053375;28;20082;-61
2022/05/23 11:23:26;;;;;;;6.35;2.20;;;;;;;23.08;48.06;99843.78;5053638;28;20021;-60
2022/05/23 11:25:57;;;;;;;9.25;2.28;;;;;;;23.06;48.16;99836.94;5053416;28;20492;-60
2022/05/23 11:34:24;;;;;;;3.58;1.85;;;;;;;23.00;47.79;99830.50;5053105;28;20095;-59
2022/05/23 11:36:57;;;;;;;8.90;2.03;;;;;;;22.98;47.80;99825.38;5053082;28;20021;-60
2022/05/23 11:39:46;;;;;;;4.65;1.90;;;;;;;22.98;48.15;99829.88;5053510;28;20086;-60
2022/05/23 11:42:13;;;;;;;5.22;1.92;;;;;;;22.96;48.26;99822.09;5052519;28;20041;-60
2022/05/23 11:44:41;;;;;;;5.80;2.35;;;;;;;22.96;48.03;99822.09;5053514;28;20024;-60
2022/05/23 11:47:12;;;;;;;5.18;2.17;;;;;;;22.94;47.84;99815.28;5052971;28;20047;-59
2022/05/23 11:49:41;;;;;;;4.20;1.67;;;;;;;22.93;48.19;99800.38;5052473;28;20488;-60
2022/05/23 11:52:35;;;;;;;4.60;2.25;;;;;;;22.92;48.21;99801.38;5053052;28;20453;-59
2022/05/23 11:55:01;;;;;;;5.00;1.95;;;;;;;22.92;48.16;99799.56;5035383;28;20473;-59
2022/05/23 11:57:46;;;;;;;5.00;1.95;;;;;;;22.91;47.89;99797.91;5052367;28;20025;-60
2022/05/23 12:00:37;;;;;;;4.22;1.80;;;;;;;22.91;48.26;99794.44;5052884;28;20120;-60
2022/05/23 12:03:15;;;;;;;9.82;2.00;;;;;;;22.88;48.20;99790.28;5052159;28;20032;-59
2022/05/23 12:05:41;;;;;;;4.35;2.05;;;;;;;22.88;47.92;99795.59;5053020;28;20029;-60
2022/05/23 12:08:27;;;;;;;6.90;2.00;;;;;;;22.88;48.24;99792.13;5052726;28;20469;-61
2022/05/23 12:10:54;;;;;;;4.40;1.90;;;;;;;22.87;47.94;99788.63;5051630;28;20104;-60
2022/05/23 12:13:29;;;;;;;4.97;1.88;;;;;;;22.87;47.99;99788.63;5053031;28;20029;-60
2022/05/23 12:15:56;;;;;;;4.68;2.38;;;;;;;22.86;47.96;99780.84;5052491;28;20068;-59
2022/05/23 12:18:21;;;;;;;10.13;2.10;;;;;;;22.86;48.46;99778.19;5052253;28;20107;-60
2022/05/23 12:20:50;;;;;;;5.13;1.80;;;;;;;22.85;48.07;99777.38;5053134;28;20512;-59
2022/05/23 12:23:29;;;;;;;4.28;2.00;;;;;;;22.85;48.02;99779.22;5052863;28;20380;-59
2022/05/23 12:26:11;;;;;;;6.28;1.90;;;;;;;22.83;48.44;99776.72;5052268;28;20464;-62
2022/05/23 12:28:50;;;;;;;4.22;1.83;;;;;;;22.80;48.03;99777.91;5052933;28;20028;-62
2022/05/23 12:31:23;;;;;;;6.90;2.42;;;;;;;22.79;47.94;99773.59;5051891;28;20032;-61
2022/05/23 12:34:07;;;;;;;5.28;1.70;;;;;;;22.76;48.18;99765.97;5052586;28;20031;-61
2022/05/23 12:36:36;;;;;;;5.88;1.80;;;;;;;22.75;47.88;99755.56;5052836;28;20163;-62
2022/05/23 12:39:35;;;;;;;4.80;2.05;;;;;;;22.74;48.18;99753.91;5051707;28;20033;-61